Terminal Aerodrome Forecast
Issued by NWS King Salmon, AK

Home | Current Version | Previous Version | Text Only | Print | Product List | Glossary On
Versions: 1 2 3 4 5 6 7 8 9 10 11 12 13 14 15 16 17 18 19 20 21 22 23 24 25 26 27 28 29 30 31 32 33
000
FTAK31 PANC 300528
TAFAKN
TAF
PAKN 300528Z 3006/3106 07006KT P6SM SCT050 BKN120
     FM301200 08006KT P6SM BKN040
     FM301600 14006KT 6SM -SHRA BR BKN025 OVC040
     FM310000 21009KT P6SM VCSH SCT025 BKN040=

USA.gov is the U.S. government's official web portal to all federal, state and local government web resources and services.